Time;durP1;ratioP1;P1;durP2;ratioP2;P2;SDS_P1;SDS_P2;PMS_P1;PMS_P2;Temp;Humidity;BMP_temperature;BMP_pressure;BME280_temperature;BME280_humidity;BME280_pressure;Samples;Min_cycle;Max_cycle;Signal;HPM_P1;HPM_P2
2023/04/07 00:00:55;;;;;;;12.10;10.98;;;;;;;9.05;36.69;99298.00;5093943;28;20020;-78
2023/04/07 00:03:20;;;;;;;12.38;11.18;;;;;;;8.57;36.98;99275.38;5093982;28;20059;-77
2023/04/07 00:05:46;;;;;;;14.38;10.90;;;;;;;8.53;36.94;99222.28;5094362;28;20024;-78
2023/04/07 00:08:12;;;;;;;12.10;10.90;;;;;;;8.53;37.30;99210.94;5094155;28;20447;-77
2023/04/07 00:10:37;;;;;;;11.68;10.50;;;;;;;9.03;37.14;99291.28;5094094;28;20085;-78
2023/04/07 00:13:02;;;;;;;11.98;10.63;;;;;;;8.40;37.15;99190.44;5093985;28;20462;-77
2023/04/07 00:15:28;;;;;;;12.30;11.13;;;;;;;9.16;37.19;99323.94;5094118;28;20028;-78
2023/04/07 00:17:53;;;;;;;14.13;11.75;;;;;;;8.93;37.24;99290.69;5094212;28;20028;-77
2023/04/07 00:20:19;;;;;;;11.05;9.95;;;;;;;9.14;37.28;99325.94;5093852;28;20028;-77
2023/04/07 00:22:45;;;;;;;12.20;11.00;;;;;;;8.71;37.20;99261.50;5093873;28;20036;-78
2023/04/07 00:25:10;;;;;;;13.68;10.82;;;;;;;8.45;37.38;99197.81;5093837;28;20059;-77
2023/04/07 00:27:36;;;;;;;12.70;10.30;;;;;;;9.21;36.97;99326.88;5093753;28;20024;-78
2023/04/07 00:30:03;;;;;;;12.75;10.02;;;;;;;9.23;36.90;99322.25;5092269;28;20119;-78
2023/04/07 00:32:28;;;;;;;11.15;10.05;;;;;;;8.60;37.11;99240.81;5093435;28;20027;-78
2023/04/07 00:34:54;;;;;;;12.18;10.18;;;;;;;9.01;36.89;99327.50;5093782;28;20020;-78
2023/04/07 00:37:19;;;;;;;11.65;10.20;;;;;;;9.06;36.88;99327.81;5093983;28;20406;-78
2023/04/07 00:39:45;;;;;;;11.57;10.48;;;;;;;9.04;36.94;99337.69;5093456;28;20515;-78
2023/04/07 00:42:11;;;;;;;12.45;10.43;;;;;;;8.36;36.65;99219.91;5093461;28;20063;-77
2023/04/07 00:44:36;;;;;;;11.85;10.20;;;;;;;9.09;36.74;99335.34;5093563;28;20052;-77
2023/04/07 00:47:02;;;;;;;11.68;10.43;;;;;;;8.38;36.84;99221.38;5093253;28;20553;-78
2023/04/07 00:49:27;;;;;;;12.38;11.05;;;;;;;9.08;36.79;99331.09;5091939;28;20035;-78
2023/04/07 00:51:56;;;;;;;11.18;9.93;;;;;;;9.07;37.12;99339.97;5093319;28;20024;-77
2023/04/07 00:54:23;;;;;;;11.23;10.02;;;;;;;8.96;37.05;99330.66;5093016;28;20114;-78
2023/04/07 00:56:48;;;;;;;11.38;10.27;;;;;;;8.80;36.96;99307.84;5093215;28;20062;-78
2023/04/07 00:59:14;;;;;;;11.80;10.60;;;;;;;9.04;36.68;99345.59;5092177;28;20074;-77
2023/04/07 01:02:02;;;;;;;12.73;10.45;;;;;;;9.07;36.44;99343.44;5092871;28;20034;-77
2023/04/07 01:04:52;;;;;;;11.82;10.10;;;;;;;9.09;36.54;99349.34;5093042;28;20024;-78
2023/04/07 01:07:25;;;;;;;10.65;9.40;;;;;;;8.40;36.57;99234.34;5091569;28;20034;-77
2023/04/07 01:10:00;;;;;;;10.95;9.88;;;;;;;8.98;36.29;99319.94;5093086;28;20089;-77
2023/04/07 01:12:26;;;;;;;10.85;9.52;;;;;;;9.06;36.54;99331.25;5092970;28;20028;-78
2023/04/07 01:14:57;;;;;;;11.25;9.93;;;;;;;9.00;36.33;99337.22;5092957;28;20028;-77
2023/04/07 01:17:26;;;;;;;11.82;9.77;;;;;;;9.05;36.67;99344.59;5092786;28;20485;-77
2023/04/07 01:20:07;;;;;;;11.30;10.10;;;;;;;8.47;35.51;99256.34;5092670;28;20085;-77
2023/04/07 01:22:42;;;;;;;11.68;9.88;;;;;;;9.00;36.11;99339.84;5092606;28;20501;-78
2023/04/07 01:25:37;;;;;;;11.15;9.90;;;;;;;8.99;35.85;99343.47;5092466;28;20540;-78
2023/04/07 01:28:03;;;;;;;11.48;10.13;;;;;;;9.05;36.31;99348.06;5092449;28;20035;-77
2023/04/07 01:30:31;;;;;;;11.57;10.48;;;;;;;8.95;36.39;99330.81;5092340;28;20020;-78
2023/04/07 01:32:59;;;;;;;10.98;9.88;;;;;;;8.69;36.27;99297.69;5092592;28;20077;-78
2023/04/07 01:35:28;;;;;;;11.23;9.88;;;;;;;8.93;36.46;99338.91;5092194;28;20435;-78
2023/04/07 01:37:55;;;;;;;11.48;10.30;;;;;;;8.73;36.50;99306.88;5090794;28;20050;-77
2023/04/07 01:40:21;;;;;;;11.57;10.38;;;;;;;8.55;36.33;99267.66;5092165;28;20024;-78
2023/04/07 01:42:48;;;;;;;10.90;9.80;;;;;;;8.74;36.58;99302.44;5090852;28;20582;-79
2023/04/07 01:45:15;;;;;;;14.00;10.75;;;;;;;9.12;36.28;99363.97;5092225;28;20020;-77
2023/04/07 01:47:42;;;;;;;10.80;9.80;;;;;;;8.70;36.29;99299.31;5092070;28;20024;-77
2023/04/07 01:50:10;;;;;;;11.40;10.23;;;;;;;8.63;36.77;99287.84;5092061;28;20496;-78
2023/04/07 01:52:36;;;;;;;11.85;10.63;;;;;;;9.00;36.57;99355.66;5092053;28;20031;-78
2023/04/07 01:55:04;;;;;;;13.88;11.00;;;;;;;8.65;36.79;99292.94;5090791;28;20024;-78
2023/04/07 01:57:29;;;;;;;13.40;10.02;;;;;;;8.52;36.44;99275.06;5092058;28;20081;-78
2023/04/07 01:59:55;;;;;;;12.43;10.48;;;;;;;8.66;36.51;99291.94;5092014;28;20031;-78
2023/04/07 02:02:21;;;;;;;12.23;10.98;;;;;;;8.56;36.62;99285.09;5091734;28;20055;-78
2023/04/07 02:04:51;;;;;;;11.50;10.40;;;;;;;9.10;36.71;99356.25;5091912;28;20032;-78
2023/04/07 02:07:27;;;;;;;11.13;10.02;;;;;;;9.12;36.51;99362.16;5090538;28;20020;-77
2023/04/07 02:09:57;;;;;;;10.93;9.82;;;;;;;8.08;36.89;99203.69;5091859;28;20036;-77
2023/04/07 02:12:26;;;;;;;11.07;9.55;;;;;;;8.96;36.88;99343.81;5091266;28;20027;-78
2023/04/07 02:14:52;;;;;;;11.50;9.50;;;;;;;8.68;36.73;99308.38;5091718;28;20035;-78
2023/04/07 02:17:18;;;;;;;12.70;10.32;;;;;;;9.02;36.50;99374.72;5091563;28;20020;-78
2023/04/07 02:19:45;;;;;;;11.13;9.93;;;;;;;9.12;36.56;99361.34;5091502;28;20032;-78
2023/04/07 02:22:11;;;;;;;11.23;10.07;;;;;;;8.58;36.63;99284.91;5091669;28;20063;-77
2023/04/07 02:24:40;;;;;;;11.13;9.63;;;;;;;8.68;36.52;99309.22;5091310;28;20028;-79
2023/04/07 02:27:06;;;;;;;12.80;9.73;;;;;;;8.71;36.74;99305.41;5091540;28;20035;-78
2023/04/07 02:29:31;;;;;;;12.90;10.73;;;;;;;8.88;36.96;99331.47;5090358;28;20036;-78
2023/04/07 02:31:56;;;;;;;10.90;9.80;;;;;;;8.60;36.90;99289.00;5090108;28;20028;-78
2023/04/07 02:34:22;;;;;;;11.43;9.85;;;;;;;9.13;36.73;99366.44;5090247;28;20141;-77
2023/04/07 02:36:47;;;;;;;11.20;10.20;;;;;;;8.43;36.68;99253.25;5091464;28;20020;-78
2023/04/07 02:39:13;;;;;;;10.93;9.82;;;;;;;8.38;36.88;99252.13;5090243;28;20511;-77
2023/04/07 02:41:38;;;;;;;11.80;10.20;;;;;;;8.89;37.04;99338.38;5091205;28;20032;-78
2023/04/07 02:44:04;;;;;;;11.20;9.88;;;;;;;8.84;37.12;99340.72;5091264;28;20024;-77
2023/04/07 02:46:29;;;;;;;11.48;9.82;;;;;;;8.51;37.17;99290.03;5091443;28;20053;-78
2023/04/07 02:48:55;;;;;;;10.57;9.57;;;;;;;8.58;37.14;99314.69;5089999;28;20020;-78
2023/04/07 02:51:20;;;;;;;12.82;9.93;;;;;;;9.00;37.30;99373.25;5089889;28;20028;-78
2023/04/07 02:53:45;;;;;;;10.73;9.63;;;;;;;8.78;37.00;99324.78;5089748;28;20024;-79
2023/04/07 02:56:11;;;;;;;10.75;9.75;;;;;;;8.57;37.23;99314.84;5091271;28;20024;-78
2023/04/07 02:58:36;;;;;;;12.27;10.20;;;;;;;8.76;37.16;99334.69;5091451;28;20480;-78
2023/04/07 03:01:02;;;;;;;10.80;9.68;;;;;;;8.88;37.26;99370.97;5091178;28;20028;-77
2023/04/07 03:03:27;;;;;;;11.85;9.93;;;;;;;8.73;37.05;99353.44;5090039;28;20036;-77
2023/04/07 03:05:52;;;;;;;10.77;9.68;;;;;;;8.44;36.86;99318.03;5091397;28;20093;-77
2023/04/07 03:08:18;;;;;;;11.90;10.02;;;;;;;7.98;36.96;99265.19;5091271;28;20101;-78
2023/04/07 03:10:43;;;;;;;12.57;10.38;;;;;;;8.36;37.41;99304.06;5091412;28;20028;-77
2023/04/07 03:13:09;;;;;;;14.98;10.68;;;;;;;8.57;36.91;99326.19;5091564;28;20059;-77
2023/04/07 03:15:34;;;;;;;11.07;9.98;;;;;;;8.89;37.10;99379.69;5091482;28;20069;-77
2023/04/07 03:18:00;;;;;;;14.15;10.95;;;;;;;8.34;37.00;99292.91;5091541;28;20617;-78
2023/04/07 03:20:26;;;;;;;12.98;10.60;;;;;;;8.79;36.87;99377.28;5089996;28;20028;-78
2023/04/07 03:22:51;;;;;;;12.43;10.93;;;;;;;8.69;37.31;99358.22;5091240;28;20028;-78
2023/04/07 03:25:16;;;;;;;11.13;9.80;;;;;;;8.57;37.20;99333.28;5093034;28;20043;-78
2023/04/07 03:27:42;;;;;;;12.73;10.48;;;;;;;8.48;36.84;99319.31;5094891;28;20415;-77
2023/04/07 03:30:07;;;;;;;12.45;9.90;;;;;;;8.40;36.97;99303.56;5094799;28;20024;-79
2023/04/07 03:32:33;;;;;;;11.00;9.95;;;;;;;8.95;36.75;99386.94;5094887;28;20035;-77
2023/04/07 03:34:58;;;;;;;11.52;9.93;;;;;;;8.50;36.90;99333.13;5094985;28;20088;-79
2023/04/07 03:37:24;;;;;;;13.25;10.48;;;;;;;8.54;36.90;99334.44;5094430;28;20099;-77
2023/04/07 03:39:49;;;;;;;12.05;10.02;;;;;;;8.43;36.95;99305.03;5094506;28;20027;-78
2023/04/07 03:42:15;;;;;;;11.38;10.07;;;;;;;8.84;36.80;99377.56;5094416;28;20024;-78
2023/04/07 03:44:40;;;;;;;12.10;10.05;;;;;;;8.63;37.02;99364.16;5094439;28;20027;-78
2023/04/07 03:47:05;;;;;;;13.35;9.93;;;;;;;8.87;37.06;99398.28;5094376;28;20481;-78
2023/04/07 03:49:31;;;;;;;12.43;9.70;;;;;;;8.53;36.67;99340.69;5094424;28;20024;-78
2023/04/07 03:51:57;;;;;;;11.60;10.20;;;;;;;8.66;37.07;99361.19;5094421;28;20039;-78
2023/04/07 03:54:22;;;;;;;13.52;10.50;;;;;;;8.89;36.62;99396.31;5094212;28;20067;-77
2023/04/07 03:56:48;;;;;;;11.30;9.15;;;;;;;8.86;36.64;99393.19;5094287;28;20073;-78
2023/04/07 03:59:13;;;;;;;12.13;10.77;;;;;;;8.40;36.65;99310.63;5094121;28;20032;-78
2023/04/07 04:01:39;;;;;;;11.48;9.95;;;;;;;8.86;36.98;99401.91;5094184;28;20096;-78
2023/04/07 04:04:04;;;;;;;11.32;9.10;;;;;;;8.93;36.85;99415.25;5092955;28;20032;-78
2023/04/07 04:06:30;;;;;;;11.73;9.45;;;;;;;8.94;36.67;99418.72;5093994;28;20023;-77
2023/04/07 04:08:55;;;;;;;11.15;10.07;;;;;;;8.93;36.83;99412.63;5093871;28;20035;-77
2023/04/07 04:11:21;;;;;;;11.75;10.48;;;;;;;8.57;36.71;99359.59;5093962;28;20027;-77
2023/04/07 04:13:46;;;;;;;13.73;11.65;;;;;;;8.58;36.95;99379.66;5093725;28;20394;-78
2023/04/07 04:16:12;;;;;;;14.38;11.32;;;;;;;7.90;36.88;99277.50;5094051;28;20481;-77
2023/04/07 04:18:37;;;;;;;15.95;11.20;;;;;;;8.87;37.02;99427.25;5093980;28;20035;-78
2023/04/07 04:21:03;;;;;;;11.30;10.18;;;;;;;8.91;36.69;99419.84;5094176;28;20110;-77
2023/04/07 04:23:28;;;;;;;18.67;11.13;;;;;;;8.88;36.83;99426.28;5093853;28;20027;-77
2023/04/07 04:25:53;;;;;;;12.18;10.90;;;;;;;8.54;37.33;99366.00;5093571;28;20635;-78
2023/04/07 04:28:19;;;;;;;10.85;9.65;;;;;;;8.51;36.99;99358.44;5093564;28;20103;-78
2023/04/07 04:30:44;;;;;;;11.50;10.15;;;;;;;8.99;37.00;99426.91;5093879;28;20453;-78
2023/04/07 04:33:10;;;;;;;11.90;10.40;;;;;;;9.06;36.66;99436.59;5093688;28;20028;-78
2023/04/07 04:35:35;;;;;;;11.40;10.27;;;;;;;8.73;37.04;99359.53;5093127;28;20024;-78
2023/04/07 04:38:00;;;;;;;12.23;10.65;;;;;;;9.08;36.94;99416.19;5093460;28;20035;-78
2023/04/07 04:40:26;;;;;;;11.73;9.95;;;;;;;8.63;36.58;99373.88;5093431;28;20428;-78
2023/04/07 04:42:51;;;;;;;14.90;12.48;;;;;;;8.68;36.59;99389.97;5093352;28;20023;-77
2023/04/07 04:45:17;;;;;;;14.30;12.80;;;;;;;8.83;36.91;99397.00;5093344;28;20109;-78
2023/04/07 04:47:42;;;;;;;14.77;11.15;;;;;;;8.65;36.23;99379.78;5092086;28;20028;-77
2023/04/07 04:50:08;;;;;;;13.38;10.50;;;;;;;8.68;36.60;99374.19;5093312;28;20024;-77
2023/04/07 04:52:34;;;;;;;12.55;11.00;;;;;;;9.12;36.23;99458.78;5093065;28;20032;-78
2023/04/07 04:54:59;;;;;;;14.95;12.20;;;;;;;9.16;36.38;99452.19;5091854;28;20554;-77
2023/04/07 04:57:25;;;;;;;14.73;11.75;;;;;;;8.98;36.70;99436.63;5093491;28;20028;-77
2023/04/07 04:59:50;;;;;;;13.10;10.20;;;;;;;8.87;36.49;99424.63;5093754;28;20059;-77
2023/04/07 05:02:16;;;;;;;14.27;10.52;;;;;;;8.91;36.29;99427.75;5093117;28;20081;-77
2023/04/07 05:04:41;;;;;;;11.63;10.40;;;;;;;8.97;36.27;99439.44;5093008;28;20034;-77
2023/04/07 05:07:07;;;;;;;11.32;10.15;;;;;;;8.71;36.60;99387.81;5093347;28;20107;-77
2023/04/07 05:09:32;;;;;;;11.48;9.77;;;;;;;8.54;36.05;99363.38;5093381;28;20023;-77
2023/04/07 05:11:57;;;;;;;12.52;10.05;;;;;;;9.02;36.10;99451.09;5093210;28;20024;-78
2023/04/07 05:14:23;;;;;;;15.40;12.55;;;;;;;8.73;36.37;99400.81;5092779;28;20148;-77
2023/04/07 05:16:48;;;;;;;15.23;11.98;;;;;;;8.81;36.46;99409.50;5092922;28;20104;-77
2023/04/07 05:19:14;;;;;;;12.65;11.43;;;;;;;9.02;36.08;99451.09;5092524;28;20115;-78
2023/04/07 05:21:39;;;;;;;13.95;11.95;;;;;;;8.84;36.25;99426.78;5092619;28;20024;-78
2023/04/07 05:24:05;;;;;;;12.70;10.63;;;;;;;8.87;36.07;99415.91;5092658;28;20476;-77
2023/04/07 05:26:30;;;;;;;13.35;11.25;;;;;;;8.57;36.27;99380.63;5092243;28;20050;-77
2023/04/07 05:28:56;;;;;;;15.20;11.82;;;;;;;8.80;36.34;99409.69;5092406;28;20028;-77
2023/04/07 05:31:21;;;;;;;13.20;11.15;;;;;;;8.78;36.12;99398.50;5090933;28;20077;-77
2023/04/07 05:33:46;;;;;;;12.55;11.23;;;;;;;9.17;36.01;99462.56;5089432;28;20519;-78
2023/04/07 05:36:12;;;;;;;13.13;10.90;;;;;;;8.56;36.12;99364.03;5087506;28;20024;-77
2023/04/07 05:38:37;;;;;;;12.82;10.73;;;;;;;8.88;36.00;99425.44;5091282;28;20103;-78
2023/04/07 05:41:03;;;;;;;13.20;10.65;;;;;;;9.01;35.95;99451.28;5089888;28;20070;-77
2023/04/07 05:43:28;;;;;;;13.57;10.18;;;;;;;8.94;35.55;99424.78;5089539;28;20031;-77
2023/04/07 05:45:53;;;;;;;12.18;9.95;;;;;;;8.60;35.77;99364.50;5085984;28;20137;-77
2023/04/07 05:48:19;;;;;;;14.55;10.05;;;;;;;8.84;35.62;99392.56;5083874;28;20023;-77
2023/04/07 05:50:44;;;;;;;11.57;10.18;;;;;;;9.05;35.77;99407.81;5087809;28;20420;-78
2023/04/07 05:53:10;;;;;;;11.88;10.55;;;;;;;9.42;35.43;99480.91;5084711;28;20111;-78
2023/04/07 05:55:35;;;;;;;16.55;10.68;;;;;;;9.57;35.67;99481.81;5085761;28;20103;-78
2023/04/07 05:58:01;;;;;;;15.02;11.48;;;;;;;9.27;34.98;99438.66;5092411;28;20496;-77
2023/04/07 06:00:26;;;;;;;14.57;11.00;;;;;;;9.60;34.94;99488.53;5090828;28;20092;-77
2023/04/07 06:02:51;;;;;;;18.85;11.85;;;;;;;9.26;35.37;99444.91;5091007;28;20027;-77
2023/04/07 06:05:17;;;;;;;16.05;11.38;;;;;;;9.14;35.41;99404.97;5090331;28;20532;-78
2023/04/07 06:07:42;;;;;;;11.13;9.55;;;;;;;8.98;35.19;99375.25;5090900;28;20027;-77
2023/04/07 06:10:08;;;;;;;12.50;10.63;;;;;;;9.44;35.17;99439.38;5091243;28;20031;-78
2023/04/07 06:12:33;;;;;;;11.63;10.15;;;;;;;9.73;35.20;99487.00;5091045;28;20063;-78
2023/04/07 06:14:58;;;;;;;13.77;10.43;;;;;;;9.63;34.84;99448.66;5090941;28;20027;-78
2023/04/07 06:17:24;;;;;;;11.30;10.10;;;;;;;9.76;34.99;99464.75;5107925;28;20055;-77
2023/04/07 06:19:50;;;;;;;16.10;11.43;;;;;;;9.53;34.81;99410.16;5103238;28;20049;-77
2023/04/07 06:22:15;;;;;;;13.45;11.13;;;;;;;9.79;34.70;99459.13;5099185;28;20028;-77
2023/04/07 06:24:41;;;;;;;13.38;9.98;;;;;;;9.61;34.72;99425.09;5104875;28;20040;-77
2023/04/07 06:27:06;;;;;;;13.50;9.80;;;;;;;9.56;34.71;99417.72;5100037;28;20024;-78
2023/04/07 06:29:32;;;;;;;12.95;10.27;;;;;;;9.73;34.56;99442.19;5089813;28;20418;-77
2023/04/07 06:31:58;;;;;;;11.07;9.35;;;;;;;10.23;33.94;99511.28;5101716;28;20062;-77
2023/04/07 06:34:24;;;;;;;11.40;9.38;;;;;;;9.70;33.95;99418.81;5090155;28;20057;-77
2023/04/07 06:36:49;;;;;;;11.55;10.27;;;;;;;9.86;33.96;99437.16;5106552;28;20024;-77
2023/04/07 06:39:15;;;;;;;11.18;9.30;;;;;;;9.86;33.96;99431.06;5095776;28;20043;-77
2023/04/07 06:41:42;;;;;;;11.77;9.82;;;;;;;10.08;33.79;99466.34;5090392;28;20485;-78
2023/04/07 06:44:10;;;;;;;12.80;9.98;;;;;;;10.44;34.09;99517.56;5092923;28;20389;-77
2023/04/07 06:46:35;;;;;;;11.82;10.48;;;;;;;10.44;33.43;99506.19;5088707;28;20047;-77
2023/04/07 06:49:01;;;;;;;11.07;9.50;;;;;;;10.14;33.35;99466.44;5104899;28;20492;-77
2023/04/07 06:51:26;;;;;;;11.32;10.23;;;;;;;10.00;33.59;99450.56;5096187;28;20032;-78
2023/04/07 06:53:52;;;;;;;13.25;10.80;;;;;;;10.26;33.24;99498.53;5087646;28;20157;-77
2023/04/07 06:56:17;;;;;;;12.23;10.15;;;;;;;10.06;33.27;99469.16;5098163;28;20032;-77
2023/04/07 06:58:42;;;;;;;17.63;12.63;;;;;;;10.35;32.92;99515.94;5108157;28;20464;-77
2023/04/07 07:01:08;;;;;;;17.38;12.55;;;;;;;10.34;33.55;99514.31;5092045;28;20036;-77
2023/04/07 07:03:33;;;;;;;27.65;16.65;;;;;;;10.50;33.12;99530.03;5091148;28;20055;-79
2023/04/07 07:05:59;;;;;;;24.63;15.50;;;;;;;10.62;32.80;99532.25;5088107;28;20169;-78
2023/04/07 07:08:26;;;;;;;16.20;11.07;;;;;;;10.65;32.75;99532.72;5093424;28;20032;-77
2023/04/07 07:10:52;;;;;;;11.65;9.63;;;;;;;10.65;32.76;99542.47;5090446;28;20024;-77
2023/04/07 07:13:18;;;;;;;11.45;10.18;;;;;;;10.26;33.24;99490.63;5093724;28;20035;-78
2023/04/07 07:15:44;;;;;;;12.40;9.13;;;;;;;10.33;32.45;99502.13;5093367;28;20027;-78
2023/04/07 07:18:11;;;;;;;12.52;9.85;;;;;;;10.38;32.27;99510.31;5100520;28;20032;-78
2023/04/07 07:20:37;;;;;;;12.93;8.95;;;;;;;10.18;32.24;99494.13;5104470;28;20019;-77
2023/04/07 07:23:02;;;;;;;11.93;8.88;;;;;;;10.46;31.99;99549.88;5108283;28;20115;-77
2023/04/07 07:25:28;;;;;;;10.07;9.07;;;;;;;10.31;32.10;99519.13;5090333;28;20056;-77
2023/04/07 07:27:53;;;;;;;13.32;9.32;;;;;;;9.99;32.63;99485.84;5094245;28;20119;-78
2023/04/07 07:30:20;;;;;;;9.90;8.82;;;;;;;10.11;32.21;99518.75;5096008;28;20040;-77
2023/04/07 07:32:46;;;;;;;11.43;8.98;;;;;;;9.91;32.10;99492.00;5110450;28;20035;-77
2023/04/07 07:35:11;;;;;;;11.05;9.48;;;;;;;10.25;32.71;99547.03;5092068;28;20108;-76
2023/04/07 07:37:37;;;;;;;13.32;10.35;;;;;;;10.20;32.30;99544.09;5091251;28;20625;-78
2023/04/07 07:40:03;;;;;;;10.98;9.38;;;;;;;10.11;32.73;99516.94;5093595;28;20107;-77
2023/04/07 07:42:29;;;;;;;9.48;8.38;;;;;;;10.11;32.86;99508.19;5091420;28;20035;-77
2023/04/07 07:44:55;;;;;;;16.40;9.70;;;;;;;10.26;32.42;99532.84;5092843;28;20032;-77
2023/04/07 07:47:20;;;;;;;11.80;9.07;;;;;;;9.88;32.33;99489.72;5094247;28;20115;-77
2023/04/07 07:49:46;;;;;;;9.68;8.68;;;;;;;10.00;32.66;99500.69;5096809;28;20558;-77
2023/04/07 07:52:11;;;;;;;12.60;10.18;;;;;;;10.56;32.68;99594.50;5092327;28;20024;-77
2023/04/07 07:54:37;;;;;;;10.32;9.32;;;;;;;10.23;32.50;99519.19;5097591;28;20111;-77
2023/04/07 07:57:03;;;;;;;10.65;9.60;;;;;;;10.31;32.93;99511.22;5096014;28;20485;-77
2023/04/07 07:59:29;;;;;;;12.65;9.05;;;;;;;10.34;33.07;99522.22;5092187;28;20032;-77
2023/04/07 08:01:55;;;;;;;11.70;9.90;;;;;;;9.98;33.00;99450.75;5105954;28;20421;-78
2023/04/07 08:04:22;;;;;;;10.27;9.10;;;;;;;10.97;32.55;99587.06;5093770;28;20020;-77
2023/04/07 08:06:48;;;;;;;10.57;9.00;;;;;;;10.75;32.89;99543.03;5093730;28;20092;-77
2023/04/07 08:09:14;;;;;;;12.27;9.90;;;;;;;10.60;32.76;99519.25;5092390;28;20028;-77
2023/04/07 08:11:39;;;;;;;10.90;8.55;;;;;;;10.69;32.46;99534.00;5092707;28;20072;-77
2023/04/07 08:14:05;;;;;;;10.18;9.07;;;;;;;10.51;32.67;99528.22;5093477;28;20028;-77
2023/04/07 08:16:30;;;;;;;13.18;9.43;;;;;;;10.93;32.40;99590.25;5092717;28;20028;-77
2023/04/07 08:18:55;;;;;;;13.90;10.23;;;;;;;10.48;32.34;99505.66;5092161;28;20024;-77
2023/04/07 08:21:21;;;;;;;9.43;8.52;;;;;;;10.61;31.92;99518.25;5093535;28;20031;-77
2023/04/07 08:23:46;;;;;;;11.05;8.80;;;;;;;10.95;32.25;99561.84;5089526;28;20032;-77
2023/04/07 08:26:11;;;;;;;11.45;9.48;;;;;;;11.07;32.12;99561.22;5080209;28;20056;-77
2023/04/07 08:28:38;;;;;;;11.00;9.55;;;;;;;11.41;32.44;99570.47;5086999;28;20032;-77
2023/04/07 08:31:03;;;;;;;11.65;10.25;;;;;;;11.08;31.78;99475.66;5109233;28;20035;-77
2023/04/07 08:33:29;;;;;;;9.40;8.40;;;;;;;11.74;31.53;99565.59;5111072;28;20032;-77
2023/04/07 08:35:54;;;;;;;9.95;8.55;;;;;;;11.49;31.80;99521.94;5092047;28;20085;-77
2023/04/07 08:38:20;;;;;;;12.25;8.30;;;;;;;11.35;31.36;99498.00;5093104;28;20028;-77
2023/04/07 08:40:47;;;;;;;12.43;9.93;;;;;;;11.40;31.02;99519.41;5092596;28;20059;-77
2023/04/07 08:43:15;;;;;;;15.27;12.73;;;;;;;11.26;31.40;99501.75;5091945;28;20505;-77
2023/04/07 08:45:41;;;;;;;11.45;8.95;;;;;;;11.30;31.27;99489.78;5089768;28;20051;-77
2023/04/07 08:48:17;;;;;;;10.02;8.38;;;;;;;11.19;30.19;99468.31;5093006;28;20508;-77
2023/04/07 08:50:51;;;;;;;10.60;8.60;;;;;;;11.85;29.49;99501.66;5088915;28;20044;-78
2023/04/07 08:53:22;;;;;;;9.02;8.13;;;;;;;12.68;29.66;99575.22;5104226;28;20039;-77
2023/04/07 08:55:47;;;;;;;7.72;7.03;;;;;;;12.80;28.74;99574.69;5087102;28;20067;-77
2023/04/07 08:58:14;;;;;;;8.43;7.63;;;;;;;13.01;28.90;99564.88;5090762;28;20117;-78
2023/04/07 09:00:44;;;;;;;9.32;8.43;;;;;;;12.90;29.08;99514.25;5087997;28;20023;-77
2023/04/07 09:03:10;;;;;;;8.63;7.72;;;;;;;12.84;28.32;99501.75;5094914;28;20466;-77
2023/04/07 09:05:36;;;;;;;9.60;8.45;;;;;;;12.83;28.83;99508.91;5092454;28;20028;-77
2023/04/07 09:08:02;;;;;;;11.52;9.45;;;;;;;12.91;29.09;99478.78;5092128;28;20031;-76
2023/04/07 09:10:28;;;;;;;9.63;8.50;;;;;;;13.23;28.69;99543.63;5089607;28;20031;-76
2023/04/07 09:12:53;;;;;;;9.95;8.88;;;;;;;13.13;28.70;99498.88;5090502;28;20153;-76
2023/04/07 09:15:20;;;;;;;9.85;8.32;;;;;;;13.54;28.51;99524.66;5088551;28;20024;-77
2023/04/07 09:17:46;;;;;;;11.68;9.15;;;;;;;13.70;28.59;99560.63;5089322;28;20020;-76
2023/04/07 09:20:11;;;;;;;7.90;7.10;;;;;;;13.35;28.42;99516.38;5103777;28;20381;-76
2023/04/07 09:22:41;;;;;;;11.85;9.32;;;;;;;13.62;28.87;99553.66;5097472;28;20032;-77
2023/04/07 09:25:25;;;;;;;10.77;9.55;;;;;;;13.62;28.22;99545.69;5087771;28;20093;-76
2023/04/07 09:28:04;;;;;;;8.18;7.45;;;;;;;13.73;27.89;99552.28;5094801;28;20023;-77
2023/04/07 09:30:32;;;;;;;8.88;7.97;;;;;;;13.61;28.84;99520.19;5113092;28;20411;-76
2023/04/07 09:32:58;;;;;;;8.50;7.60;;;;;;;14.05;28.52;99518.88;5092212;28;20035;-77
2023/04/07 09:35:25;;;;;;;9.00;8.10;;;;;;;14.74;28.20;99539.84;5090919;28;20031;-77
2023/04/07 09:38:09;;;;;;;8.38;7.43;;;;;;;14.92;27.30;99493.03;5091926;28;20492;-77
2023/04/07 09:40:36;;;;;;;10.23;8.10;;;;;;;15.55;27.70;99538.50;5090699;28;20032;-77
2023/04/07 09:43:03;;;;;;;10.80;8.70;;;;;;;15.13;27.57;99491.97;5094538;28;20519;-77
2023/04/07 09:45:34;;;;;;;9.68;8.25;;;;;;;15.26;27.49;99552.28;5112431;28;20394;-77
2023/04/07 09:48:04;;;;;;;8.23;7.43;;;;;;;14.69;27.20;99486.50;5110863;28;20043;-76
2023/04/07 09:50:34;;;;;;;10.13;8.00;;;;;;;15.16;27.35;99522.66;5112043;28;20480;-77
2023/04/07 09:53:01;;;;;;;9.18;8.15;;;;;;;15.40;27.55;99545.91;5112323;28;20023;-76
2023/04/07 09:55:28;;;;;;;9.13;8.05;;;;;;;15.03;27.52;99483.63;5112237;28;20023;-78
2023/04/07 09:57:54;;;;;;;9.23;8.32;;;;;;;15.55;27.22;99532.34;5112229;28;20098;-77
2023/04/07 10:00:20;;;;;;;8.88;7.97;;;;;;;15.44;27.50;99533.00;5112253;28;20032;-77
2023/04/07 10:02:46;;;;;;;9.27;8.38;;;;;;;15.37;27.33;99484.31;5097680;28;20507;-76
2023/04/07 10:05:12;;;;;;;10.75;8.77;;;;;;;15.74;26.81;99483.59;5086808;28;20024;-77
2023/04/07 10:07:38;;;;;;;11.15;9.65;;;;;;;16.39;26.54;99539.38;5110089;28;20035;-77
2023/04/07 10:10:06;;;;;;;15.95;13.27;;;;;;;16.07;26.52;99503.91;5101790;28;20024;-77
2023/04/07 10:12:33;;;;;;;10.75;9.57;;;;;;;16.06;27.03;99536.88;5090800;28;20036;-77
2023/04/07 10:15:00;;;;;;;10.20;8.48;;;;;;;15.33;26.81;99461.84;5084623;28;20311;-77
2023/04/07 10:17:27;;;;;;;9.15;7.35;;;;;;;15.57;27.30;99532.97;5087741;28;20055;-77
2023/04/07 10:19:54;;;;;;;10.48;8.38;;;;;;;15.45;27.67;99531.97;5090745;28;20035;-77
2023/04/07 10:22:20;;;;;;;9.63;7.70;;;;;;;15.40;27.55;99466.09;5091702;28;20049;-77
2023/04/07 10:25:05;;;;;;;9.50;8.45;;;;;;;16.11;27.34;99497.94;5090258;28;20055;-76
2023/04/07 10:27:52;;;;;;;8.30;7.50;;;;;;;16.91;26.68;99518.69;5087477;28;20031;-77
2023/04/07 10:30:24;;;;;;;11.10;9.15;;;;;;;17.06;26.34;99474.59;5089975;28;20031;-77
2023/04/07 10:32:51;;;;;;;13.02;11.65;;;;;;;17.35;25.93;99458.91;5101067;28;20024;-77
2023/04/07 10:35:17;;;;;;;8.65;7.80;;;;;;;17.71;25.59;99522.16;5103868;28;20048;-77
2023/04/07 10:38:07;;;;;;;9.70;8.80;;;;;;;17.81;25.03;99527.78;5089174;28;20208;-77
2023/04/07 10:40:34;;;;;;;9.93;8.93;;;;;;;17.85;25.28;99525.50;5089219;28;20044;-78
2023/04/07 10:43:00;;;;;;;9.18;8.27;;;;;;;17.37;25.43;99468.34;5087648;28;20099;-77
2023/04/07 10:45:47;;;;;;;10.43;8.50;;;;;;;18.01;25.21;99522.19;5083310;28;20115;-77
2023/04/07 10:48:14;;;;;;;10.50;8.95;;;;;;;18.04;25.49;99508.38;5071787;28;20218;-77
2023/04/07 10:50:39;;;;;;;8.75;7.57;;;;;;;18.29;25.02;99490.34;5083507;28;20028;-78
2023/04/07 10:53:12;;;;;;;9.55;8.23;;;;;;;18.79;24.97;99513.25;5091288;28;20115;-78
2023/04/07 10:55:43;;;;;;;8.20;7.40;;;;;;;18.59;24.64;99422.63;5090883;28;20413;-78
2023/04/07 10:58:12;;;;;;;8.60;7.65;;;;;;;19.17;24.30;99508.22;5090037;28;20381;-77
2023/04/07 11:00:37;;;;;;;8.43;7.00;;;;;;;19.30;24.52;99507.97;5070609;28;20038;-77
2023/04/07 11:03:13;;;;;;;7.30;6.63;;;;;;;19.38;24.24;99480.03;5070732;28;20025;-78
2023/04/07 11:05:42;;;;;;;8.10;7.30;;;;;;;19.17;24.16;99507.41;5070817;28;20036;-77
2023/04/07 11:08:08;;;;;;;8.98;7.07;;;;;;;18.87;23.94;99462.88;5088807;28;20032;-76
2023/04/07 11:10:37;;;;;;;8.00;7.20;;;;;;;18.87;24.14;99446.00;5090134;28;20081;-78
2023/04/07 11:13:05;;;;;;;8.90;7.70;;;;;;;19.42;24.05;99509.84;5090849;28;20584;-77
2023/04/07 11:15:32;;;;;;;12.57;9.50;;;;;;;19.10;24.28;99458.53;5089651;28;20050;-78
2023/04/07 11:18:16;;;;;;;9.88;8.60;;;;;;;19.22;24.38;99451.31;5090998;28;20353;-78
2023/04/07 11:20:52;;;;;;;8.73;7.72;;;;;;;19.25;24.56;99507.84;5089624;28;20020;-78
2023/04/07 11:23:20;;;;;;;9.52;7.53;;;;;;;19.20;24.45;99509.59;5090747;28;20028;-78
2023/04/07 11:25:47;;;;;;;10.60;8.75;;;;;;;18.88;24.75;99451.13;5089224;28;20075;-78